sensor_id;sensor_type;location;lat;lon;timestamp;temperature;humidity
12704;DHT22;6416;52.182;7.650;2023-02-28T00:01:41;3.90;43.00
12704;DHT22;6416;52.182;7.650;2023-02-28T00:04:06;3.90;43.10
12704;DHT22;6416;52.182;7.650;2023-02-28T00:06:32;3.80;43.10
12704;DHT22;6416;52.182;7.650;2023-02-28T00:08:57;3.80;43.40
12704;DHT22;6416;52.182;7.650;2023-02-28T00:11:23;3.80;43.60
12704;DHT22;6416;52.182;7.650;2023-02-28T00:13:48;3.80;43.80
12704;DHT22;6416;52.182;7.650;2023-02-28T00:16:17;3.80;43.80
12704;DHT22;6416;52.182;7.650;2023-02-28T00:18:43;3.80;44.00
12704;DHT22;6416;52.182;7.650;2023-02-28T00:21:09;3.80;44.00
12704;DHT22;6416;52.182;7.650;2023-02-28T00:23:35;3.90;44.20
12704;DHT22;6416;52.182;7.650;2023-02-28T00:26:00;3.90;44.40
12704;DHT22;6416;52.182;7.650;2023-02-28T00:28:26;3.90;44.40
12704;DHT22;6416;52.182;7.650;2023-02-28T00:30:52;3.90;44.40
12704;DHT22;6416;52.182;7.650;2023-02-28T00:33:17;4.00;44.40
12704;DHT22;6416;52.182;7.650;2023-02-28T00:35:43;4.00;44.40
12704;DHT22;6416;52.182;7.650;2023-02-28T00:38:09;4.00;44.30
12704;DHT22;6416;52.182;7.650;2023-02-28T00:40:34;4.00;44.30
12704;DHT22;6416;52.182;7.650;2023-02-28T00:43:00;4.00;44.20
12704;DHT22;6416;52.182;7.650;2023-02-28T00:45:25;4.00;44.20
12704;DHT22;6416;52.182;7.650;2023-02-28T00:47:51;3.90;44.20
12704;DHT22;6416;52.182;7.650;2023-02-28T00:50:20;3.90;44.20
12704;DHT22;6416;52.182;7.650;2023-02-28T00:52:46;3.90;44.50
12704;DHT22;6416;52.182;7.650;2023-02-28T00:55:12;3.90;44.40
12704;DHT22;6416;52.182;7.650;2023-02-28T00:57:38;3.90;44.60
12704;DHT22;6416;52.182;7.650;2023-02-28T01:00:04;3.90;44.60
12704;DHT22;6416;52.182;7.650;2023-02-28T01:02:30;3.90;44.70
12704;DHT22;6416;52.182;7.650;2023-02-28T01:04:56;3.90;44.70
12704;DHT22;6416;52.182;7.650;2023-02-28T01:07:21;3.90;44.70
12704;DHT22;6416;52.182;7.650;2023-02-28T01:09:46;3.90;44.70
12704;DHT22;6416;52.182;7.650;2023-02-28T01:12:12;3.90;44.70
12704;DHT22;6416;52.182;7.650;2023-02-28T01:14:38;3.90;44.70
12704;DHT22;6416;52.182;7.650;2023-02-28T01:17:04;3.80;44.60
12704;DHT22;6416;52.182;7.650;2023-02-28T01:19:30;3.80;44.60
12704;DHT22;6416;52.182;7.650;2023-02-28T01:21:55;3.80;44.60
12704;DHT22;6416;52.182;7.650;2023-02-28T01:24:21;3.70;44.70
12704;DHT22;6416;52.182;7.650;2023-02-28T01:26:46;3.70;44.80
12704;DHT22;6416;52.182;7.650;2023-02-28T01:29:12;3.70;44.90
12704;DHT22;6416;52.182;7.650;2023-02-28T01:31:37;3.70;45.00
12704;DHT22;6416;52.182;7.650;2023-02-28T01:34:03;3.70;45.00
12704;DHT22;6416;52.182;7.650;2023-02-28T01:36:28;3.60;44.90
12704;DHT22;6416;52.182;7.650;2023-02-28T01:38:54;3.60;44.90
12704;DHT22;6416;52.182;7.650;2023-02-28T01:41:25;3.60;45.00
12704;DHT22;6416;52.182;7.650;2023-02-28T01:43:53;3.50;45.30
12704;DHT22;6416;52.182;7.650;2023-02-28T01:46:18;3.50;45.10
12704;DHT22;6416;52.182;7.650;2023-02-28T01:49:09;3.50;45.20
12704;DHT22;6416;52.182;7.650;2023-02-28T01:51:45;3.50;45.70
12704;DHT22;6416;52.182;7.650;2023-02-28T01:54:16;3.50;46.30
12704;DHT22;6416;52.182;7.650;2023-02-28T01:56:46;3.50;45.50
12704;DHT22;6416;52.182;7.650;2023-02-28T01:59:20;3.50;45.70
12704;DHT22;6416;52.182;7.650;2023-02-28T02:01:47;3.50;45.80
12704;DHT22;6416;52.182;7.650;2023-02-28T02:04:12;3.60;45.70
12704;DHT22;6416;52.182;7.650;2023-02-28T02:06:42;3.60;45.70
12704;DHT22;6416;52.182;7.650;2023-02-28T02:09:08;3.60;45.90
12704;DHT22;6416;52.182;7.650;2023-02-28T02:11:34;3.70;45.80
12704;DHT22;6416;52.182;7.650;2023-02-28T02:39:04;3.90;46.10
12704;DHT22;6416;52.182;7.650;2023-02-28T02:41:35;3.90;46.50
12704;DHT22;6416;52.182;7.650;2023-02-28T02:46:46;3.80;46.10
12704;DHT22;6416;52.182;7.650;2023-02-28T02:49:28;3.80;46.50
12704;DHT22;6416;52.182;7.650;2023-02-28T02:51:58;3.70;46.70
12704;DHT22;6416;52.182;7.650;2023-02-28T02:54:29;3.60;45.90
12704;DHT22;6416;52.182;7.650;2023-02-28T02:56:59;3.60;46.00
12704;DHT22;6416;52.182;7.650;2023-02-28T02:59:26;3.50;46.10
12704;DHT22;6416;52.182;7.650;2023-02-28T03:01:56;3.40;46.00
12704;DHT22;6416;52.182;7.650;2023-02-28T03:04:24;3.40;46.10
12704;DHT22;6416;52.182;7.650;2023-02-28T03:06:51;3.30;46.10
12704;DHT22;6416;52.182;7.650;2023-02-28T03:09:17;3.20;46.00
12704;DHT22;6416;52.182;7.650;2023-02-28T03:11:42;3.20;46.00
12704;DHT22;6416;52.182;7.650;2023-02-28T03:17:45;3.10;47.20
12704;DHT22;6416;52.182;7.650;2023-02-28T03:20:16;3.00;46.70
12704;DHT22;6416;52.182;7.650;2023-02-28T03:23:02;2.90;46.80
12704;DHT22;6416;52.182;7.650;2023-02-28T03:33:28;2.70;47.10
12704;DHT22;6416;52.182;7.650;2023-02-28T03:36:09;2.60;46.50
12704;DHT22;6416;52.182;7.650;2023-02-28T03:38:46;2.60;47.10
12704;DHT22;6416;52.182;7.650;2023-02-28T03:41:22;2.60;46.90
12704;DHT22;6416;52.182;7.650;2023-02-28T03:44:01;2.50;47.10
12704;DHT22;6416;52.182;7.650;2023-02-28T03:46:31;2.50;47.30
12704;DHT22;6416;52.182;7.650;2023-02-28T03:49:07;2.50;46.80
12704;DHT22;6416;52.182;7.650;2023-02-28T03:51:35;2.40;47.00
12704;DHT22;6416;52.182;7.650;2023-02-28T03:54:07;2.40;46.70
12704;DHT22;6416;52.182;7.650;2023-02-28T03:56:39;2.30;46.90
12704;DHT22;6416;52.182;7.650;2023-02-28T04:02:19;2.30;47.80
12704;DHT22;6416;52.182;7.650;2023-02-28T04:04:45;2.20;46.50
12704;DHT22;6416;52.182;7.650;2023-02-28T04:07:11;2.20;46.70
12704;DHT22;6416;52.182;7.650;2023-02-28T04:09:36;2.10;47.20
12704;DHT22;6416;52.182;7.650;2023-02-28T04:12:02;2.10;46.90
12704;DHT22;6416;52.182;7.650;2023-02-28T04:14:28;2.00;46.90
12704;DHT22;6416;52.182;7.650;2023-02-28T04:16:53;2.00;47.00
12704;DHT22;6416;52.182;7.650;2023-02-28T04:19:19;2.00;47.10
12704;DHT22;6416;52.182;7.650;2023-02-28T04:21:49;1.90;47.10
12704;DHT22;6416;52.182;7.650;2023-02-28T04:24:23;1.90;47.30
12704;DHT22;6416;52.182;7.650;2023-02-28T04:26:51;1.90;47.70
12704;DHT22;6416;52.182;7.650;2023-02-28T04:29:26;1.80;47.30
12704;DHT22;6416;52.182;7.650;2023-02-28T04:31:52;1.80;47.70
12704;DHT22;6416;52.182;7.650;2023-02-28T04:34:19;1.70;47.30
12704;DHT22;6416;52.182;7.650;2023-02-28T04:36:44;1.70;47.30
12704;DHT22;6416;52.182;7.650;2023-02-28T04:39:10;1.70;47.30
12704;DHT22;6416;52.182;7.650;2023-02-28T04:41:35;1.70;47.30
12704;DHT22;6416;52.182;7.650;2023-02-28T04:44:01;1.60;47.30
12704;DHT22;6416;52.182;7.650;2023-02-28T04:46:26;1.60;47.30
12704;DHT22;6416;52.182;7.650;2023-02-28T04:48:52;1.50;47.30
12704;DHT22;6416;52.182;7.650;2023-02-28T04:51:18;1.50;47.30
12704;DHT22;6416;52.182;7.650;2023-02-28T04:53:44;1.50;47.30
12704;DHT22;6416;52.182;7.650;2023-02-28T04:56:12;1.40;47.20
12704;DHT22;6416;52.182;7.650;2023-02-28T04:58:38;1.40;47.40
12704;DHT22;6416;52.182;7.650;2023-02-28T05:01:06;1.40;47.30
12704;DHT22;6416;52.182;7.650;2023-02-28T05:03:32;1.40;47.40
12704;DHT22;6416;52.182;7.650;2023-02-28T05:05:58;1.40;47.30
12704;DHT22;6416;52.182;7.650;2023-02-28T05:08:23;1.30;47.40
12704;DHT22;6416;52.182;7.650;2023-02-28T05:10:49;1.30;47.40
12704;DHT22;6416;52.182;7.650;2023-02-28T05:13:14;1.30;47.40
12704;DHT22;6416;52.182;7.650;2023-02-28T05:15:40;1.30;47.50
12704;DHT22;6416;52.182;7.650;2023-02-28T05:18:05;1.20;47.50
12704;DHT22;6416;52.182;7.650;2023-02-28T05:20:31;1.20;47.50
12704;DHT22;6416;52.182;7.650;2023-02-28T05:22:57;1.10;47.40
12704;DHT22;6416;52.182;7.650;2023-02-28T05:25:24;1.10;47.50
12704;DHT22;6416;52.182;7.650;2023-02-28T05:27:49;1.10;47.60
12704;DHT22;6416;52.182;7.650;2023-02-28T05:30:15;1.10;47.60
12704;DHT22;6416;52.182;7.650;2023-02-28T05:32:41;1.10;47.70
12704;DHT22;6416;52.182;7.650;2023-02-28T05:35:07;1.10;47.80
12704;DHT22;6416;52.182;7.650;2023-02-28T05:37:32;1.10;47.90
12704;DHT22;6416;52.182;7.650;2023-02-28T05:39:58;1.10;48.10
12704;DHT22;6416;52.182;7.650;2023-02-28T05:42:23;1.10;48.20
12704;DHT22;6416;52.182;7.650;2023-02-28T05:44:49;1.20;48.40
12704;DHT22;6416;52.182;7.650;2023-02-28T05:47:15;1.20;48.50
12704;DHT22;6416;52.182;7.650;2023-02-28T05:49:41;1.30;48.60
12704;DHT22;6416;52.182;7.650;2023-02-28T05:52:07;1.30;48.70
12704;DHT22;6416;52.182;7.650;2023-02-28T05:54:32;1.40;48.70
12704;DHT22;6416;52.182;7.650;2023-02-28T05:56:58;1.40;48.70
12704;DHT22;6416;52.182;7.650;2023-02-28T05:59:23;1.50;48.70
12704;DHT22;6416;52.182;7.650;2023-02-28T06:01:49;1.50;48.60
12704;DHT22;6416;52.182;7.650;2023-02-28T06:04:16;1.60;48.60
12704;DHT22;6416;52.182;7.650;2023-02-28T06:06:42;1.60;48.50
12704;DHT22;6416;52.182;7.650;2023-02-28T06:09:08;1.60;48.30
12704;DHT22;6416;52.182;7.650;2023-02-28T06:11:33;1.60;48.10
12704;DHT22;6416;52.182;7.650;2023-02-28T06:13:59;1.60;48.00
12704;DHT22;6416;52.182;7.650;2023-02-28T06:16:27;1.50;47.90
12704;DHT22;6416;52.182;7.650;2023-02-28T06:18:53;1.50;48.60
12704;DHT22;6416;52.182;7.650;2023-02-28T06:21:18;1.50;48.00
12704;DHT22;6416;52.182;7.650;2023-02-28T06:23:44;1.40;48.00
12704;DHT22;6416;52.182;7.650;2023-02-28T06:26:10;1.40;48.10
12704;DHT22;6416;52.182;7.650;2023-02-28T06:28:36;1.40;48.10
12704;DHT22;6416;52.182;7.650;2023-02-28T06:31:13;1.40;48.20
12704;DHT22;6416;52.182;7.650;2023-02-28T06:33:40;1.40;48.80
12704;DHT22;6416;52.182;7.650;2023-02-28T06:36:07;1.40;48.30
12704;DHT22;6416;52.182;7.650;2023-02-28T06:38:33;1.40;48.50
12704;DHT22;6416;52.182;7.650;2023-02-28T06:41:00;1.40;48.70
12704;DHT22;6416;52.182;7.650;2023-02-28T06:43:28;1.50;48.90
12704;DHT22;6416;52.182;7.650;2023-02-28T06:45:56;1.50;49.20
12704;DHT22;6416;52.182;7.650;2023-02-28T06:48:22;1.60;49.30
12704;DHT22;6416;52.182;7.650;2023-02-28T06:50:47;1.70;49.50
12704;DHT22;6416;52.182;7.650;2023-02-28T06:53:13;1.90;49.70
12704;DHT22;6416;52.182;7.650;2023-02-28T06:55:39;2.00;49.60
12704;DHT22;6416;52.182;7.650;2023-02-28T06:58:05;2.10;49.60
12704;DHT22;6416;52.182;7.650;2023-02-28T07:00:30;2.20;49.40
12704;DHT22;6416;52.182;7.650;2023-02-28T07:02:56;2.30;49.40
12704;DHT22;6416;52.182;7.650;2023-02-28T07:05:21;2.40;49.20
12704;DHT22;6416;52.182;7.650;2023-02-28T07:07:47;2.40;49.00
12704;DHT22;6416;52.182;7.650;2023-02-28T07:10:12;2.50;49.00
12704;DHT22;6416;52.182;7.650;2023-02-28T07:12:38;2.50;49.00
12704;DHT22;6416;52.182;7.650;2023-02-28T07:15:05;2.60;49.00
12704;DHT22;6416;52.182;7.650;2023-02-28T07:17:30;2.70;49.20
12704;DHT22;6416;52.182;7.650;2023-02-28T07:19:56;2.80;49.40
12704;DHT22;6416;52.182;7.650;2023-02-28T07:22:21;2.90;49.60
12704;DHT22;6416;52.182;7.650;2023-02-28T07:24:47;3.00;49.70
12704;DHT22;6416;52.182;7.650;2023-02-28T07:27:13;3.20;49.90
12704;DHT22;6416;52.182;7.650;2023-02-28T07:29:38;3.30;50.00
12704;DHT22;6416;52.182;7.650;2023-02-28T07:32:05;3.50;50.40
12704;DHT22;6416;52.182;7.650;2023-02-28T07:34:30;3.70;51.00
12704;DHT22;6416;52.182;7.650;2023-02-28T07:36:55;4.10;51.90
12704;DHT22;6416;52.182;7.650;2023-02-28T07:39:21;4.50;52.50
12704;DHT22;6416;52.182;7.650;2023-02-28T07:41:47;5.10;53.60
12704;DHT22;6416;52.182;7.650;2023-02-28T07:44:13;5.60;54.30
12704;DHT22;6416;52.182;7.650;2023-02-28T07:46:38;6.20;54.70
12704;DHT22;6416;52.182;7.650;2023-02-28T07:49:04;6.90;55.10
12704;DHT22;6416;52.182;7.650;2023-02-28T07:51:30;7.60;55.20
12704;DHT22;6416;52.182;7.650;2023-02-28T07:53:56;8.40;55.20
12704;DHT22;6416;52.182;7.650;2023-02-28T07:56:21;9.10;54.80
12704;DHT22;6416;52.182;7.650;2023-02-28T07:58:47;9.90;54.30
12704;DHT22;6416;52.182;7.650;2023-02-28T08:01:13;10.60;52.80
12704;DHT22;6416;52.182;7.650;2023-02-28T08:03:42;11.30;52.30
12704;DHT22;6416;52.182;7.650;2023-02-28T08:06:19;11.90;51.50
12704;DHT22;6416;52.182;7.650;2023-02-28T08:08:48;12.60;50.30
12704;DHT22;6416;52.182;7.650;2023-02-28T08:11:15;13.20;49.80
12704;DHT22;6416;52.182;7.650;2023-02-28T08:13:41;13.80;49.50
12704;DHT22;6416;52.182;7.650;2023-02-28T08:16:08;14.40;49.80
12704;DHT22;6416;52.182;7.650;2023-02-28T08:18:37;14.90;48.50
12704;DHT22;6416;52.182;7.650;2023-02-28T08:21:17;15.40;47.20
12704;DHT22;6416;52.182;7.650;2023-02-28T08:23:47;15.90;45.70
12704;DHT22;6416;52.182;7.650;2023-02-28T08:26:17;16.30;45.30
12704;DHT22;6416;52.182;7.650;2023-02-28T08:28:42;16.70;44.60
12704;DHT22;6416;52.182;7.650;2023-02-28T08:31:12;17.00;43.50
12704;DHT22;6416;52.182;7.650;2023-02-28T08:33:38;17.30;42.20
12704;DHT22;6416;52.182;7.650;2023-02-28T08:36:05;17.60;41.90
12704;DHT22;6416;52.182;7.650;2023-02-28T08:38:31;17.90;41.10
12704;DHT22;6416;52.182;7.650;2023-02-28T08:40:58;18.10;40.80
12704;DHT22;6416;52.182;7.650;2023-02-28T08:43:24;18.30;40.10
12704;DHT22;6416;52.182;7.650;2023-02-28T08:45:52;18.50;39.70
12704;DHT22;6416;52.182;7.650;2023-02-28T08:48:17;18.70;39.30
12704;DHT22;6416;52.182;7.650;2023-02-28T08:50:43;18.90;39.50
12704;DHT22;6416;52.182;7.650;2023-02-28T08:53:08;19.10;39.50
12704;DHT22;6416;52.182;7.650;2023-02-28T08:55:34;19.40;39.10
12704;DHT22;6416;52.182;7.650;2023-02-28T08:57:59;19.70;38.50
12704;DHT22;6416;52.182;7.650;2023-02-28T09:00:25;20.00;38.60
12704;DHT22;6416;52.182;7.650;2023-02-28T09:02:50;20.30;38.20
12704;DHT22;6416;52.182;7.650;2023-02-28T09:05:16;20.50;37.70
12704;DHT22;6416;52.182;7.650;2023-02-28T09:07:41;20.70;37.10
12704;DHT22;6416;52.182;7.650;2023-02-28T09:10:07;21.00;36.20
12704;DHT22;6416;52.182;7.650;2023-02-28T09:12:34;21.10;35.50
12704;DHT22;6416;52.182;7.650;2023-02-28T09:14:59;21.30;35.50
12704;DHT22;6416;52.182;7.650;2023-02-28T09:17:25;21.50;34.90
12704;DHT22;6416;52.182;7.650;2023-02-28T09:19:50;21.70;34.70
12704;DHT22;6416;52.182;7.650;2023-02-28T09:22:16;21.80;34.90
12704;DHT22;6416;52.182;7.650;2023-02-28T09:24:42;22.00;33.40
12704;DHT22;6416;52.182;7.650;2023-02-28T09:27:07;22.10;32.30
12704;DHT22;6416;52.182;7.650;2023-02-28T09:29:33;22.10;31.60
12704;DHT22;6416;52.182;7.650;2023-02-28T09:31:59;22.20;31.60
12704;DHT22;6416;52.182;7.650;2023-02-28T09:34:25;22.20;32.10
12704;DHT22;6416;52.182;7.650;2023-02-28T09:36:51;22.40;32.10
12704;DHT22;6416;52.182;7.650;2023-02-28T09:39:16;22.50;31.40
12704;DHT22;6416;52.182;7.650;2023-02-28T09:41:44;22.60;31.90
12704;DHT22;6416;52.182;7.650;2023-02-28T09:44:16;22.90;31.20
12704;DHT22;6416;52.182;7.650;2023-02-28T09:46:48;23.10;30.60
12704;DHT22;6416;52.182;7.650;2023-02-28T09:49:18;23.20;29.60
12704;DHT22;6416;52.182;7.650;2023-02-28T09:54:18;23.40;28.30
12704;DHT22;6416;52.182;7.650;2023-02-28T10:04:58;23.70;27.10
12704;DHT22;6416;52.182;7.650;2023-02-28T10:07:53;23.70;26.30
12704;DHT22;6416;52.182;7.650;2023-02-28T10:13:13;23.80;27.90
12704;DHT22;6416;52.182;7.650;2023-02-28T10:15:40;23.80;27.50
12704;DHT22;6416;52.182;7.650;2023-02-28T10:18:12;23.90;27.00
12704;DHT22;6416;52.182;7.650;2023-02-28T10:20:39;23.90;27.20
12704;DHT22;6416;52.182;7.650;2023-02-28T10:23:34;24.10;27.60
12704;DHT22;6416;52.182;7.650;2023-02-28T10:26:12;24.20;25.70
12704;DHT22;6416;52.182;7.650;2023-02-28T10:28:38;24.30;25.20
12704;DHT22;6416;52.182;7.650;2023-02-28T10:31:03;24.30;26.30
12704;DHT22;6416;52.182;7.650;2023-02-28T10:35:57;24.30;25.70
12704;DHT22;6416;52.182;7.650;2023-02-28T10:38:25;24.40;25.80
12704;DHT22;6416;52.182;7.650;2023-02-28T10:40:51;24.40;25.70
12704;DHT22;6416;52.182;7.650;2023-02-28T10:43:18;24.50;25.40
12704;DHT22;6416;52.182;7.650;2023-02-28T10:48:29;24.60;23.70
12704;DHT22;6416;52.182;7.650;2023-02-28T10:50:55;24.80;26.20
12704;DHT22;6416;52.182;7.650;2023-02-28T10:58:52;25.20;25.10
12704;DHT22;6416;52.182;7.650;2023-02-28T11:01:24;25.20;23.50
12704;DHT22;6416;52.182;7.650;2023-02-28T11:03:51;25.20;24.40
12704;DHT22;6416;52.182;7.650;2023-02-28T11:06:21;25.20;25.10
12704;DHT22;6416;52.182;7.650;2023-02-28T11:08:56;25.30;25.10
12704;DHT22;6416;52.182;7.650;2023-02-28T11:11:25;25.30;24.40
12704;DHT22;6416;52.182;7.650;2023-02-28T11:13:56;25.40;24.80
12704;DHT22;6416;52.182;7.650;2023-02-28T11:16:32;25.50;24.40
12704;DHT22;6416;52.182;7.650;2023-02-28T11:18:59;25.60;23.70
12704;DHT22;6416;52.182;7.650;2023-02-28T11:21:31;25.60;24.10
12704;DHT22;6416;52.182;7.650;2023-02-28T11:25:07;25.60;23.40
12704;DHT22;6416;52.182;7.650;2023-02-28T11:26:58;25.60;24.10
12704;DHT22;6416;52.182;7.650;2023-02-28T11:29:28;25.70;24.80
12704;DHT22;6416;52.182;7.650;2023-02-28T11:32:22;25.80;24.20
12704;DHT22;6416;52.182;7.650;2023-02-28T11:35:11;26.00;23.70
12704;DHT22;6416;52.182;7.650;2023-02-28T11:37:39;26.20;23.80
12704;DHT22;6416;52.182;7.650;2023-02-28T11:40:17;26.30;24.20
12704;DHT22;6416;52.182;7.650;2023-02-28T11:45:44;26.50;24.10
12704;DHT22;6416;52.182;7.650;2023-02-28T11:48:27;26.60;23.60
12704;DHT22;6416;52.182;7.650;2023-02-28T11:51:21;26.70;22.70
12704;DHT22;6416;52.182;7.650;2023-02-28T11:56:36;26.90;22.80
12704;DHT22;6416;52.182;7.650;2023-02-28T12:08:18;26.90;22.50
12704;DHT22;6416;52.182;7.650;2023-02-28T12:13:26;27.10;23.40
12704;DHT22;6416;52.182;7.650;2023-02-28T12:15:58;27.30;23.80
12704;DHT22;6416;52.182;7.650;2023-02-28T12:18:46;27.50;23.70
12704;DHT22;6416;52.182;7.650;2023-02-28T12:26:44;27.90;22.70
12704;DHT22;6416;52.182;7.650;2023-02-28T12:29:23;27.90;23.30
12704;DHT22;6416;52.182;7.650;2023-02-28T12:31:59;28.00;21.80
12704;DHT22;6416;52.182;7.650;2023-02-28T12:34:33;28.00;21.80
12704;DHT22;6416;52.182;7.650;2023-02-28T12:37:03;28.00;21.70
12704;DHT22;6416;52.182;7.650;2023-02-28T12:39:35;28.00;22.50
12704;DHT22;6416;52.182;7.650;2023-02-28T12:42:31;28.10;22.30
12704;DHT22;6416;52.182;7.650;2023-02-28T12:45:20;28.10;20.40
12704;DHT22;6416;52.182;7.650;2023-02-28T12:47:57;28.10;21.40
12704;DHT22;6416;52.182;7.650;2023-02-28T12:50:24;28.10;21.80
12704;DHT22;6416;52.182;7.650;2023-02-28T12:53:03;28.00;21.80
12704;DHT22;6416;52.182;7.650;2023-02-28T12:56:13;27.90;20.80
12704;DHT22;6416;52.182;7.650;2023-02-28T12:58:56;27.70;20.90
12704;DHT22;6416;52.182;7.650;2023-02-28T13:01:46;27.90;20.10
12704;DHT22;6416;52.182;7.650;2023-02-28T13:07:40;27.10;20.60
12704;DHT22;6416;52.182;7.650;2023-02-28T13:10:10;27.50;19.10
12704;DHT22;6416;52.182;7.650;2023-02-28T13:12:36;27.00;20.50
12704;DHT22;6416;52.182;7.650;2023-02-28T13:15:07;26.90;20.70
12704;DHT22;6416;52.182;7.650;2023-02-28T13:17:34;26.70;20.40
12704;DHT22;6416;52.182;7.650;2023-02-28T13:20:00;26.50;20.90
12704;DHT22;6416;52.182;7.650;2023-02-28T13:24:55;26.20;21.40
12704;DHT22;6416;52.182;7.650;2023-02-28T13:29:51;26.00;21.50
12704;DHT22;6416;52.182;7.650;2023-02-28T13:39:52;25.40;21.20
12704;DHT22;6416;52.182;7.650;2023-02-28T13:47:29;24.40;20.10
12704;DHT22;6416;52.182;7.650;2023-02-28T13:50:26;24.00;20.60
12704;DHT22;6416;52.182;7.650;2023-02-28T14:06:29;21.10;20.70
12704;DHT22;6416;52.182;7.650;2023-02-28T14:11:43;20.30;20.90
12704;DHT22;6416;52.182;7.650;2023-02-28T14:14:53;20.00;21.10
12704;DHT22;6416;52.182;7.650;2023-02-28T14:16:55;19.60;21.10
12704;DHT22;6416;52.182;7.650;2023-02-28T14:19:25;19.20;21.00
12704;DHT22;6416;52.182;7.650;2023-02-28T14:27:33;18.30;21.70
12704;DHT22;6416;52.182;7.650;2023-02-28T14:38:25;16.80;22.10
12704;DHT22;6416;52.182;7.650;2023-02-28T14:40:55;16.50;22.10
12704;DHT22;6416;52.182;7.650;2023-02-28T14:43:23;16.30;22.20
12704;DHT22;6416;52.182;7.650;2023-02-28T14:45:52;16.00;22.30
12704;DHT22;6416;52.182;7.650;2023-02-28T14:48:19;15.80;22.50
12704;DHT22;6416;52.182;7.650;2023-02-28T14:50:51;15.50;22.70
12704;DHT22;6416;52.182;7.650;2023-02-28T14:53:19;15.40;23.00
12704;DHT22;6416;52.182;7.650;2023-02-28T14:55:47;15.10;23.20
12704;DHT22;6416;52.182;7.650;2023-02-28T14:58:31;15.00;23.40
12704;DHT22;6416;52.182;7.650;2023-02-28T15:01:02;14.80;23.60
12704;DHT22;6416;52.182;7.650;2023-02-28T15:03:37;14.60;23.50
12704;DHT22;6416;52.182;7.650;2023-02-28T15:06:15;14.50;23.70
12704;DHT22;6416;52.182;7.650;2023-02-28T15:08:40;14.40;23.80
12704;DHT22;6416;52.182;7.650;2023-02-28T15:11:17;14.20;23.70
12704;DHT22;6416;52.182;7.650;2023-02-28T15:13:46;14.10;24.20
12704;DHT22;6416;52.182;7.650;2023-02-28T15:16:29;13.90;24.30
12704;DHT22;6416;52.182;7.650;2023-02-28T15:21:30;13.70;24.40
12704;DHT22;6416;52.182;7.650;2023-02-28T15:27:25;13.50;25.00
12704;DHT22;6416;52.182;7.650;2023-02-28T15:29:56;13.40;24.80
12704;DHT22;6416;52.182;7.650;2023-02-28T15:32:36;13.30;25.10
12704;DHT22;6416;52.182;7.650;2023-02-28T15:40:37;13.00;25.40
12704;DHT22;6416;52.182;7.650;2023-02-28T15:45:48;12.90;25.20
12704;DHT22;6416;52.182;7.650;2023-02-28T15:48:18;12.80;25.30
12704;DHT22;6416;52.182;7.650;2023-02-28T15:50:44;12.70;25.30
12704;DHT22;6416;52.182;7.650;2023-02-28T15:53:17;12.60;25.10
12704;DHT22;6416;52.182;7.650;2023-02-28T15:55:43;12.50;25.40
12704;DHT22;6416;52.182;7.650;2023-02-28T15:58:11;12.40;25.30
12704;DHT22;6416;52.182;7.650;2023-02-28T16:00:37;12.40;25.40
12704;DHT22;6416;52.182;7.650;2023-02-28T16:03:27;12.30;25.30
12704;DHT22;6416;52.182;7.650;2023-02-28T16:06:35;12.30;26.10
12704;DHT22;6416;52.182;7.650;2023-02-28T16:09:01;12.20;26.10
12704;DHT22;6416;52.182;7.650;2023-02-28T16:11:27;12.10;25.50
12704;DHT22;6416;52.182;7.650;2023-02-28T16:13:53;12.00;25.50
12704;DHT22;6416;52.182;7.650;2023-02-28T16:16:21;12.00;25.70
12704;DHT22;6416;52.182;7.650;2023-02-28T16:18:47;11.90;25.90
12704;DHT22;6416;52.182;7.650;2023-02-28T16:21:13;11.90;26.20
12704;DHT22;6416;52.182;7.650;2023-02-28T16:23:38;11.80;26.10
12704;DHT22;6416;52.182;7.650;2023-02-28T16:26:04;11.70;26.20
12704;DHT22;6416;52.182;7.650;2023-02-28T16:28:33;11.60;26.10
12704;DHT22;6416;52.182;7.650;2023-02-28T16:31:00;11.60;26.20
12704;DHT22;6416;52.182;7.650;2023-02-28T16:33:26;11.50;26.10
12704;DHT22;6416;52.182;7.650;2023-02-28T16:35:52;11.50;26.20
12704;DHT22;6416;52.182;7.650;2023-02-28T16:38:17;11.40;26.30
12704;DHT22;6416;52.182;7.650;2023-02-28T16:40:43;11.30;26.30
12704;DHT22;6416;52.182;7.650;2023-02-28T16:43:16;11.30;26.40
12704;DHT22;6416;52.182;7.650;2023-02-28T16:45:42;11.20;26.60
12704;DHT22;6416;52.182;7.650;2023-02-28T16:48:16;11.20;26.50
12704;DHT22;6416;52.182;7.650;2023-02-28T16:50:42;11.10;26.70
12704;DHT22;6416;52.182;7.650;2023-02-28T16:53:08;11.00;26.50
12704;DHT22;6416;52.182;7.650;2023-02-28T16:55:34;10.90;26.70
12704;DHT22;6416;52.182;7.650;2023-02-28T16:58:01;10.90;26.80
12704;DHT22;6416;52.182;7.650;2023-02-28T17:00:28;10.80;26.90
12704;DHT22;6416;52.182;7.650;2023-02-28T17:02:57;10.70;27.00
12704;DHT22;6416;52.182;7.650;2023-02-28T17:05:23;10.70;27.10
12704;DHT22;6416;52.182;7.650;2023-02-28T17:07:48;10.60;27.10
12704;DHT22;6416;52.182;7.650;2023-02-28T17:12:42;10.50;27.30
12704;DHT22;6416;52.182;7.650;2023-02-28T17:15:10;10.50;27.40
12704;DHT22;6416;52.182;7.650;2023-02-28T17:17:35;10.40;27.50
12704;DHT22;6416;52.182;7.650;2023-02-28T17:20:02;10.40;27.60
12704;DHT22;6416;52.182;7.650;2023-02-28T17:22:27;10.30;27.70
12704;DHT22;6416;52.182;7.650;2023-02-28T17:24:53;10.30;27.80
12704;DHT22;6416;52.182;7.650;2023-02-28T17:27:18;10.20;27.90
12704;DHT22;6416;52.182;7.650;2023-02-28T17:29:44;10.20;28.00
12704;DHT22;6416;52.182;7.650;2023-02-28T17:32:09;10.10;28.00
12704;DHT22;6416;52.182;7.650;2023-02-28T17:34:35;10.00;28.00
12704;DHT22;6416;52.182;7.650;2023-02-28T17:37:00;9.90;28.80
12704;DHT22;6416;52.182;7.650;2023-02-28T17:39:26;9.90;28.80
12704;DHT22;6416;52.182;7.650;2023-02-28T17:41:52;9.80;28.90
12704;DHT22;6416;52.182;7.650;2023-02-28T17:44:18;9.80;29.10
12704;DHT22;6416;52.182;7.650;2023-02-28T17:46:45;9.70;29.10
12704;DHT22;6416;52.182;7.650;2023-02-28T17:49:11;9.70;29.20
12704;DHT22;6416;52.182;7.650;2023-02-28T17:51:36;9.60;29.20
12704;DHT22;6416;52.182;7.650;2023-02-28T17:54:02;9.60;29.30
12704;DHT22;6416;52.182;7.650;2023-02-28T17:56:31;9.50;29.40
12704;DHT22;6416;52.182;7.650;2023-02-28T17:58:56;9.50;29.60
12704;DHT22;6416;52.182;7.650;2023-02-28T18:01:23;9.40;29.50
12704;DHT22;6416;52.182;7.650;2023-02-28T18:03:49;9.30;29.60
12704;DHT22;6416;52.182;7.650;2023-02-28T18:06:18;9.30;29.60
12704;DHT22;6416;52.182;7.650;2023-02-28T18:08:45;9.20;29.80
12704;DHT22;6416;52.182;7.650;2023-02-28T18:11:10;9.20;29.70
12704;DHT22;6416;52.182;7.650;2023-02-28T18:13:36;9.10;29.80
12704;DHT22;6416;52.182;7.650;2023-02-28T18:16:01;9.10;29.90
12704;DHT22;6416;52.182;7.650;2023-02-28T18:18:27;9.00;30.00
12704;DHT22;6416;52.182;7.650;2023-02-28T18:20:52;8.90;30.00
12704;DHT22;6416;52.182;7.650;2023-02-28T18:23:18;8.90;30.00
12704;DHT22;6416;52.182;7.650;2023-02-28T18:25:43;8.80;30.00
12704;DHT22;6416;52.182;7.650;2023-02-28T18:28:09;8.80;30.10
12704;DHT22;6416;52.182;7.650;2023-02-28T18:30:36;8.70;30.10
12704;DHT22;6416;52.182;7.650;2023-02-28T18:33:02;8.70;30.30
12704;DHT22;6416;52.182;7.650;2023-02-28T18:35:29;8.60;30.30
12704;DHT22;6416;52.182;7.650;2023-02-28T18:37:54;8.60;30.60
12704;DHT22;6416;52.182;7.650;2023-02-28T18:40:20;8.50;30.50
12704;DHT22;6416;52.182;7.650;2023-02-28T18:42:45;8.50;30.70